createdAt,value
2018-11-21T00:00:34.194Z,82.12
2018-11-21T00:01:34.184Z,82.50
2018-11-21T00:02:34.170Z,82.64
2018-11-21T00:03:34.192Z,81.76
2018-11-21T00:04:34.155Z,81.87
2018-11-21T00:05:34.140Z,82.32
2018-11-21T00:06:34.135Z,82.01
2018-11-21T00:07:34.125Z,82.64
2018-11-21T00:08:34.133Z,82.53
2018-11-21T00:09:34.101Z,82.43
2018-11-21T00:10:34.093Z,82.32
2018-11-21T00:11:34.091Z,82.12
2018-11-21T00:12:34.079Z,82.01
2018-11-21T00:13:34.100Z,82.12
2018-11-21T00:14:34.050Z,81.80
2018-11-21T00:15:34.040Z,81.90
2018-11-21T00:16:34.031Z,81.80
2018-11-21T00:17:34.027Z,82.01
2018-11-21T00:18:34.039Z,81.95
2018-11-21T00:19:33.996Z,82.64
2018-11-21T00:20:33.985Z,82.12
2018-11-21T00:21:34.002Z,82.12
2018-11-21T00:22:33.969Z,81.80
2018-11-21T00:23:33.973Z,82.22
2018-11-21T00:24:33.965Z,82.46
2018-11-21T00:25:33.940Z,82.32
2018-11-21T00:26:33.923Z,82.43
2018-11-21T00:27:33.915Z,81.80
2018-11-21T00:28:33.904Z,81.90
2018-11-21T00:29:33.904Z,82.26
2018-11-21T00:30:33.899Z,82.67
2018-11-21T00:31:33.873Z,82.67
2018-11-21T00:32:33.855Z,84.03
2018-11-21T00:33:33.855Z,83.72
2018-11-21T00:34:33.851Z,83.51
2018-11-21T00:35:33.826Z,82.74
2018-11-21T00:36:33.815Z,82.60
2018-11-21T00:37:33.809Z,81.97
2018-11-21T00:38:33.795Z,82.53
2018-11-21T00:39:33.822Z,82.22
2018-11-21T00:40:33.775Z,81.76
2018-11-21T00:41:33.773Z,81.76
2018-11-21T00:42:33.753Z,81.66
2018-11-21T00:43:33.747Z,81.66
2018-11-21T00:44:33.733Z,81.03
2018-11-21T00:45:33.738Z,81.45
2018-11-21T00:46:33.716Z,81.03
2018-11-21T00:47:33.706Z,81.41
2018-11-21T00:48:33.687Z,81.10
2018-11-21T00:49:33.677Z,81.10
2018-11-21T00:50:33.686Z,80.89
2018-11-21T00:51:33.652Z,81.24
2018-11-21T00:52:33.643Z,81.66
2018-11-21T00:53:33.635Z,81.76
2018-11-21T00:54:33.628Z,81.90
2018-11-21T00:55:33.639Z,81.97
2018-11-21T00:56:33.606Z,81.87
2018-11-21T00:57:33.634Z,82.60
2018-11-21T00:58:33.584Z,82.60
2018-11-21T00:59:33.591Z,82.39
2018-11-21T01:00:33.597Z,82.18
2018-11-21T01:01:33.566Z,82.25
2018-11-21T01:02:41.121Z,82.04
2018-11-21T01:03:33.525Z,81.27
2018-11-21T01:04:33.520Z,80.89
2018-11-21T01:05:33.512Z,81.16
2018-11-21T01:06:33.513Z,80.75
2018-11-21T01:07:33.482Z,80.75
2018-11-21T01:08:33.476Z,81.21
2018-11-21T01:09:33.465Z,80.99
2018-11-21T01:10:33.457Z,81.73
2018-11-21T01:11:33.496Z,81.62
2018-11-21T01:12:33.438Z,81.93
2018-11-21T01:13:33.423Z,81.62
2018-11-21T01:14:33.443Z,81.56
2018-11-21T01:15:33.398Z,81.87
2018-11-21T01:16:33.414Z,81.73
2018-11-21T01:17:33.409Z,81.73
2018-11-21T01:18:33.391Z,81.73
2018-11-21T01:19:33.365Z,82.14
2018-11-21T01:20:33.349Z,82.67
2018-11-21T01:21:33.356Z,81.93
2018-11-21T01:22:33.348Z,82.04
2018-11-21T01:23:33.326Z,82.46
2018-11-21T01:24:33.317Z,82.04
2018-11-21T01:25:33.299Z,81.73
2018-11-21T01:26:33.291Z,81.27
2018-11-21T01:27:33.322Z,81.21
2018-11-21T01:28:33.267Z,80.96
2018-11-21T01:29:33.261Z,80.75
2018-11-21T01:30:33.254Z,80.75
2018-11-21T01:31:33.232Z,80.54
2018-11-21T01:32:33.260Z,80.65
2018-11-21T01:33:33.227Z,80.75
2018-11-21T01:34:33.255Z,81.06
2018-11-21T01:35:33.201Z,80.75
2018-11-21T01:36:33.182Z,80.96
2018-11-21T01:37:33.179Z,80.96
2018-11-21T01:38:33.202Z,81.06
2018-11-21T01:39:33.153Z,80.75
2018-11-21T01:40:33.138Z,80.75
2018-11-21T01:41:33.144Z,81.06
2018-11-21T01:42:33.119Z,80.96
2018-11-21T01:43:33.146Z,81.27
2018-11-21T01:44:33.136Z,81.16
2018-11-21T01:45:33.082Z,81.06
2018-11-21T01:46:33.079Z,81.21
2018-11-21T01:47:33.078Z,81.16
2018-11-21T01:48:33.054Z,81.59
2018-11-21T01:49:33.061Z,81.06
2018-11-21T01:50:33.062Z,80.85
2018-11-21T01:51:33.017Z,80.96
2018-11-21T01:52:33.010Z,80.96
2018-11-21T01:53:33.020Z,81.16
2018-11-21T01:54:33.019Z,81.06
2018-11-21T01:55:32.973Z,80.75
2018-11-21T01:56:32.970Z,80.65
2018-11-21T01:57:32.960Z,80.75
2018-11-21T01:58:32.947Z,80.75
2018-11-21T01:59:32.961Z,81.16
2018-11-21T02:00:32.928Z,80.75
2018-11-21T02:01:32.932Z,80.75
2018-11-21T02:02:32.922Z,80.54
2018-11-21T02:03:32.890Z,80.85
2018-11-21T02:04:32.898Z,80.85
2018-11-21T02:05:32.876Z,81.06
2018-11-21T02:06:32.859Z,81.27
2018-11-21T02:07:32.861Z,80.85
2018-11-21T02:08:32.845Z,81.06
2018-11-21T02:09:32.874Z,81.06
2018-11-21T02:10:32.817Z,80.85
2018-11-21T02:11:32.834Z,80.75
2018-11-21T02:12:32.796Z,80.75
2018-11-21T02:13:32.795Z,80.75
2018-11-21T02:14:32.773Z,80.85
2018-11-21T02:15:32.779Z,81.06
2018-11-21T02:16:32.775Z,81.48
2018-11-21T02:17:32.742Z,81.16
2018-11-21T02:18:32.735Z,81.31
2018-11-21T02:19:32.738Z,81.52
2018-11-21T02:20:32.728Z,81.52
2018-11-21T02:21:32.700Z,81.41
2018-11-21T02:22:32.719Z,81.10
2018-11-21T02:23:32.678Z,81.16
2018-11-21T02:24:32.672Z,81.06
2018-11-21T02:25:32.696Z,80.75
2018-11-21T02:26:32.646Z,81.06
2018-11-21T02:27:32.637Z,81.16
2018-11-21T02:28:32.658Z,80.65
2018-11-21T02:29:32.614Z,80.96
2018-11-21T02:30:32.633Z,81.06
2018-11-21T02:31:32.600Z,81.31
2018-11-21T02:32:32.596Z,80.96
2018-11-21T02:33:32.579Z,81.16
2018-11-21T02:34:32.563Z,81.31
2018-11-21T02:35:32.564Z,81.62
2018-11-21T02:36:32.560Z,82.14
2018-11-21T02:37:32.529Z,81.83
2018-11-21T02:38:32.521Z,81.90
2018-11-21T02:39:32.515Z,81.06
2018-11-21T02:40:32.502Z,81.06
2018-11-21T02:41:32.515Z,80.96
2018-11-21T02:42:32.494Z,81.06
2018-11-21T02:43:32.474Z,81.27
2018-11-21T02:44:32.454Z,80.96
2018-11-21T02:45:32.459Z,81.16
2018-11-21T02:46:32.462Z,81.06
2018-11-21T02:47:32.428Z,81.16
2018-11-21T02:48:32.416Z,80.75
2018-11-21T02:49:32.407Z,81.16
2018-11-21T02:50:32.394Z,80.65
2018-11-21T02:51:32.389Z,81.27
2018-11-21T02:52:32.393Z,81.16
2018-11-21T02:53:32.360Z,81.06
2018-11-21T02:54:32.353Z,81.06
2018-11-21T02:55:32.338Z,81.48
2018-11-21T02:56:32.325Z,80.96
2018-11-21T02:57:32.339Z,82.10
2018-11-21T02:58:32.312Z,81.83
2018-11-21T02:59:32.302Z,82.46
2018-11-21T03:00:32.285Z,82.00
2018-11-21T03:01:32.272Z,82.10
2018-11-21T03:02:32.291Z,82.31
2018-11-21T03:03:32.269Z,82.00
2018-11-21T03:04:32.238Z,81.16
2018-11-21T03:05:32.235Z,81.06
2018-11-21T03:06:32.238Z,81.48
2018-11-21T03:07:32.246Z,81.27
2018-11-21T03:08:32.212Z,81.02
2018-11-21T03:09:32.190Z,81.45
2018-11-21T03:10:32.198Z,80.71
2018-11-21T03:11:32.164Z,80.61
2018-11-21T03:12:32.183Z,81.13
2018-11-21T03:13:32.162Z,80.71
2018-11-21T03:14:32.133Z,80.40
2018-11-21T03:15:32.123Z,80.92
2018-11-21T03:16:32.139Z,80.71
2018-11-21T03:17:32.112Z,80.44
2018-11-21T03:18:32.149Z,80.71
2018-11-21T03:19:32.081Z,80.92
2018-11-21T03:20:32.073Z,81.13
2018-11-21T03:21:32.064Z,80.85
2018-11-21T03:22:32.065Z,80.96
2018-11-21T03:23:32.082Z,80.96
2018-11-21T03:24:32.034Z,80.96
2018-11-21T03:25:32.025Z,81.16
2018-11-21T03:26:32.005Z,80.96
2018-11-21T03:27:31.995Z,81.06
2018-11-21T03:28:32.026Z,81.38
2018-11-21T03:29:31.991Z,81.23
2018-11-21T03:30:31.966Z,81.02
2018-11-21T03:31:31.954Z,81.34
2018-11-21T03:32:31.945Z,80.71
2018-11-21T03:33:31.939Z,81.27
2018-11-21T03:34:31.942Z,80.96
2018-11-21T03:35:31.922Z,81.38
2018-11-21T03:36:31.905Z,81.38
2018-11-21T03:37:31.900Z,81.02
2018-11-21T03:38:31.887Z,81.02
2018-11-21T03:39:31.899Z,80.92
2018-11-21T03:40:31.861Z,80.85
2018-11-21T03:41:31.851Z,81.48
2018-11-21T03:42:31.839Z,81.06
2018-11-21T03:43:31.829Z,80.92
2018-11-21T03:44:31.844Z,80.82
2018-11-21T03:45:31.825Z,80.71
2018-11-21T03:46:31.803Z,80.61
2018-11-21T03:47:31.786Z,80.92
2018-11-21T03:48:31.776Z,80.71
2018-11-21T03:49:31.771Z,80.92
2018-11-21T03:50:31.774Z,81.23
2018-11-21T03:51:31.754Z,81.23
2018-11-21T03:52:31.734Z,80.71
2018-11-21T03:53:31.739Z,80.92
2018-11-21T03:54:31.708Z,80.82
2018-11-21T03:55:31.719Z,80.36
2018-11-21T03:56:31.693Z,80.26
2018-11-21T03:57:31.698Z,80.26
2018-11-21T03:58:31.682Z,80.57
2018-11-21T03:59:31.663Z,80.47
2018-11-21T04:00:31.648Z,80.26
2018-11-21T04:01:31.672Z,80.36
2018-11-21T04:02:31.652Z,80.30
2018-11-21T04:03:31.619Z,80.30
2018-11-21T04:04:31.606Z,80.51
2018-11-21T04:05:31.594Z,80.92
2018-11-21T04:06:31.595Z,81.13
2018-11-21T04:07:31.607Z,81.02
2018-11-21T04:08:31.598Z,81.02
2018-11-21T04:09:31.547Z,81.27
2018-11-21T04:10:31.549Z,80.92
2018-11-21T04:11:31.528Z,80.92
2018-11-21T04:12:31.522Z,81.13
2018-11-21T04:13:31.536Z,81.16
2018-11-21T04:14:31.503Z,82.21
2018-11-21T04:15:31.492Z,81.69
2018-11-21T04:16:31.482Z,81.76
2018-11-21T04:17:31.469Z,82.53
2018-11-21T04:18:31.492Z,82.59
2018-11-21T04:19:31.459Z,82.84
2018-11-21T04:20:31.440Z,82.80
2018-11-21T04:21:31.423Z,83.11
2018-11-21T04:22:31.422Z,83.15
2018-11-21T04:23:31.435Z,82.42
2018-11-21T04:24:31.399Z,81.96
2018-11-21T04:25:31.396Z,81.86
2018-11-21T04:26:31.397Z,81.76
2018-11-21T04:27:31.368Z,81.96
2018-11-21T04:28:31.394Z,82.00
2018-11-21T04:29:31.336Z,82.28
2018-11-21T04:30:31.337Z,82.73
2018-11-21T04:31:31.335Z,82.73
2018-11-21T04:32:31.320Z,82.73
2018-11-21T04:33:31.296Z,82.42
2018-11-21T04:34:31.305Z,82.63
2018-11-21T04:35:31.292Z,82.84
2018-11-21T04:36:31.269Z,82.38
2018-11-21T04:37:31.251Z,82.38
2018-11-21T04:38:31.251Z,82.31
2018-11-21T04:39:31.271Z,82.53
2018-11-21T04:40:31.231Z,82.59
2018-11-21T04:41:31.226Z,82.17
2018-11-21T04:42:31.203Z,82.53
2018-11-21T04:43:31.206Z,83.78
2018-11-21T04:44:31.211Z,83.36
2018-11-21T04:45:31.166Z,83.78
2018-11-21T04:46:31.156Z,82.80
2018-11-21T04:47:31.156Z,83.57
2018-11-21T04:48:31.139Z,83.53
2018-11-21T04:49:31.159Z,83.53
2018-11-21T04:50:31.147Z,83.22
2018-11-21T04:51:31.099Z,83.01
2018-11-21T04:52:31.091Z,82.48
2018-11-21T04:53:31.111Z,82.24
2018-11-21T04:54:31.077Z,81.86
2018-11-21T04:55:31.079Z,81.51
2018-11-21T04:56:31.050Z,81.72
2018-11-21T04:57:31.051Z,81.86
2018-11-21T04:58:31.047Z,82.03
2018-11-21T04:59:31.018Z,82.28
2018-11-21T05:00:31.031Z,83.47
2018-11-21T05:01:30.997Z,83.15
2018-11-21T05:02:31.006Z,83.88
2018-11-21T05:03:30.972Z,83.84
2018-11-21T05:04:30.963Z,83.74
2018-11-21T05:05:30.955Z,83.36
2018-11-21T05:06:30.978Z,83.63
2018-11-21T05:07:30.946Z,83.74
2018-11-21T05:08:30.933Z,83.32
2018-11-21T05:09:30.912Z,83.47
2018-11-21T05:10:30.909Z,84.19
2018-11-21T05:11:30.909Z,85.44
2018-11-21T05:12:30.880Z,85.13
2018-11-21T05:13:30.876Z,85.13
2018-11-21T05:14:30.854Z,85.24
2018-11-21T05:15:30.864Z,85.86
2018-11-21T05:16:30.870Z,85.03
2018-11-21T05:17:30.832Z,84.78
2018-11-21T05:18:30.809Z,83.95
2018-11-21T05:19:30.799Z,84.16
2018-11-21T05:20:30.796Z,84.47
2018-11-21T05:21:30.781Z,84.50
2018-11-21T05:22:30.793Z,85.13
2018-11-21T05:23:30.759Z,85.24
2018-11-21T05:24:30.756Z,85.65
2018-11-21T05:25:30.743Z,85.97
2018-11-21T05:26:30.752Z,85.86
2018-11-21T05:27:30.734Z,86.28
2018-11-21T05:28:30.705Z,86.28
2018-11-21T05:29:30.700Z,86.49
2018-11-21T05:30:30.683Z,86.28
2018-11-21T05:31:30.672Z,86.38
2018-11-21T05:32:30.679Z,87.32
2018-11-21T05:33:30.651Z,87.32
2018-11-21T05:34:30.641Z,87.47
2018-11-21T05:35:30.644Z,87.99
2018-11-21T05:36:30.641Z,87.84
2018-11-21T05:37:30.643Z,88.16
2018-11-21T05:38:30.599Z,88.06
2018-11-21T05:39:30.607Z,88.26
2018-11-21T05:40:30.576Z,88.20
2018-11-21T05:41:30.567Z,88.16
2018-11-21T05:42:30.561Z,88.51
2018-11-21T05:43:30.574Z,88.06
2018-11-21T05:44:31.378Z,88.16
2018-11-21T05:45:30.539Z,87.74
2018-11-21T05:46:30.515Z,87.84
2018-11-21T05:47:30.507Z,88.16
2018-11-21T05:48:30.508Z,87.53
2018-11-21T05:49:30.481Z,88.06
2018-11-21T05:50:30.475Z,87.84
2018-11-21T05:51:30.458Z,87.74
2018-11-21T05:52:30.454Z,88.06
2018-11-21T05:53:30.454Z,87.95
2018-11-21T05:54:30.424Z,88.06
2018-11-21T05:55:30.427Z,87.74
2018-11-21T05:56:30.402Z,87.91
2018-11-21T05:57:30.391Z,87.91
2018-11-21T05:58:30.418Z,87.60
2018-11-21T05:59:30.373Z,88.01
2018-11-21T06:00:30.366Z,87.32
2018-11-21T06:01:30.391Z,87.07
2018-11-21T06:02:30.343Z,87.18
2018-11-21T06:03:30.332Z,87.22
2018-11-21T06:04:30.360Z,87.12
2018-11-21T06:05:30.307Z,87.32
2018-11-21T06:06:30.296Z,87.32
2018-11-21T06:07:30.285Z,86.55
2018-11-21T06:08:30.272Z,86.24
2018-11-21T06:09:30.318Z,86.13
2018-11-21T06:10:30.260Z,86.38
2018-11-21T06:11:30.248Z,87.28
2018-11-21T06:12:30.232Z,87.22
2018-11-21T06:13:30.227Z,87.28
2018-11-21T06:14:30.285Z,86.66
2018-11-21T06:15:30.201Z,86.45
2018-11-21T06:16:30.199Z,86.24
2018-11-21T06:17:30.178Z,86.10
2018-11-21T06:18:30.178Z,85.68
2018-11-21T06:19:30.157Z,85.82
2018-11-21T06:20:30.170Z,85.93
2018-11-21T06:21:30.146Z,85.72
2018-11-21T06:22:30.123Z,85.58
2018-11-21T06:23:30.130Z,85.68
2018-11-21T06:24:30.107Z,85.41
2018-11-21T06:25:30.137Z,85.51
2018-11-21T06:26:30.100Z,85.10
2018-11-21T06:27:30.086Z,85.68
2018-11-21T06:28:30.064Z,85.61
2018-11-21T06:29:30.061Z,85.51
2018-11-21T06:30:30.070Z,85.72
2018-11-21T06:31:30.039Z,85.82
2018-11-21T06:32:30.021Z,85.51
2018-11-21T06:33:30.034Z,85.41
2018-11-21T06:34:32.843Z,85.51
2018-11-21T06:35:30.020Z,85.41
2018-11-21T06:36:30.002Z,85.51
2018-11-21T06:37:29.970Z,85.51
2018-11-21T06:38:29.961Z,85.72
2018-11-21T06:39:29.952Z,85.93
2018-11-21T06:40:29.936Z,85.61
2018-11-21T06:41:29.957Z,85.30
2018-11-21T06:42:29.916Z,85.51
2018-11-21T06:43:29.902Z,85.51
2018-11-21T06:44:29.954Z,85.82
2018-11-21T06:45:29.886Z,85.78
2018-11-21T06:46:29.911Z,85.47
2018-11-21T06:47:29.889Z,85.36
2018-11-21T06:48:29.855Z,85.58
2018-11-21T06:49:29.842Z,85.47
2018-11-21T06:50:29.855Z,85.68
2018-11-21T06:51:35.146Z,84.95
2018-11-21T06:52:29.813Z,85.68
2018-11-21T06:53:29.831Z,85.64
2018-11-21T06:54:29.788Z,84.84
2018-11-21T06:55:29.774Z,85.02
2018-11-21T06:56:29.791Z,85.16
2018-11-21T06:57:29.779Z,85.05
2018-11-21T06:58:29.746Z,85.02
2018-11-21T06:59:29.760Z,85.16
2018-11-21T07:00:29.727Z,85.26
2018-11-21T07:01:29.713Z,85.47
2018-11-21T07:02:29.717Z,85.78
2018-11-21T07:03:29.704Z,85.89
2018-11-21T07:04:29.681Z,85.72
2018-11-21T07:05:29.695Z,85.93
2018-11-21T07:06:29.658Z,86.35
2018-11-21T07:07:29.703Z,87.07
2018-11-21T07:08:29.637Z,86.87
2018-11-21T07:09:29.644Z,87.39
2018-11-21T07:10:29.616Z,86.55
2018-11-21T07:11:29.614Z,86.24
2018-11-21T07:12:29.606Z,86.35
2018-11-21T07:13:29.608Z,86.51
2018-11-21T07:14:29.580Z,86.45
2018-11-21T07:15:29.561Z,86.45
2018-11-21T07:16:29.570Z,86.76
2018-11-21T07:17:29.571Z,86.35
2018-11-21T07:18:29.566Z,86.30
2018-11-21T07:19:29.519Z,85.99
2018-11-21T07:20:29.524Z,85.78
2018-11-21T07:21:29.501Z,85.68
2018-11-21T07:22:29.487Z,85.78
2018-11-21T07:23:29.507Z,86.10
2018-11-21T07:24:29.473Z,85.78
2018-11-21T07:25:29.496Z,86.10
2018-11-21T07:26:29.449Z,85.47
2018-11-21T07:27:29.434Z,85.89
2018-11-21T07:28:29.426Z,86.10
2018-11-21T07:29:34.538Z,85.89
2018-11-21T07:30:29.403Z,86.55
2018-11-21T07:31:29.392Z,87.24
2018-11-21T07:32:29.381Z,86.97
2018-11-21T07:33:29.387Z,87.18
2018-11-21T07:34:29.384Z,87.39
2018-11-21T07:35:29.355Z,87.07
2018-11-21T07:36:29.339Z,87.39
2018-11-21T07:37:29.336Z,87.18
2018-11-21T07:38:29.327Z,87.81
2018-11-21T07:39:29.347Z,87.35
2018-11-21T07:40:29.307Z,86.83
2018-11-21T07:41:29.307Z,86.30
2018-11-21T07:42:29.277Z,86.16
2018-11-21T07:43:29.267Z,85.33
2018-11-21T07:44:29.259Z,85.43
2018-11-21T07:45:29.283Z,85.78
2018-11-21T07:46:29.254Z,85.78
2018-11-21T07:47:29.230Z,85.58
2018-11-21T07:48:29.220Z,86.10
2018-11-21T07:49:29.208Z,86.16
2018-11-21T07:50:29.215Z,86.30
2018-11-21T07:51:29.180Z,86.20
2018-11-21T07:52:29.193Z,85.99
2018-11-21T07:53:29.188Z,86.30
2018-11-21T07:54:29.146Z,86.51
2018-11-21T07:55:29.169Z,86.41
2018-11-21T07:56:29.135Z,86.41
2018-11-21T07:57:29.114Z,86.51
2018-11-21T07:58:29.115Z,86.30
2018-11-21T07:59:29.095Z,87.04
2018-11-21T08:00:29.122Z,87.14
2018-11-21T08:01:29.079Z,86.93
2018-11-21T08:02:29.061Z,87.24
2018-11-21T08:03:29.055Z,87.04
2018-11-21T08:04:29.053Z,87.49
2018-11-21T08:05:29.063Z,87.91
2018-11-21T08:06:29.020Z,88.01
2018-11-21T08:07:29.021Z,88.32
2018-11-21T08:08:29.007Z,87.91
2018-11-21T08:09:28.987Z,88.01
2018-11-21T08:10:28.976Z,87.70
2018-11-21T08:11:29.003Z,88.01
2018-11-21T08:12:28.988Z,88.12
2018-11-21T08:13:28.956Z,87.55
2018-11-21T08:14:28.947Z,87.24
2018-11-21T08:15:28.937Z,86.93
2018-11-21T08:16:28.933Z,87.35
2018-11-21T08:17:28.912Z,87.14
2018-11-21T08:18:28.898Z,87.45
2018-11-21T08:19:28.884Z,87.04
2018-11-21T08:20:28.871Z,87.35
2018-11-21T08:21:28.897Z,87.20
2018-11-21T08:22:28.861Z,86.51
2018-11-21T08:23:28.863Z,85.85
2018-11-21T08:24:28.830Z,85.96
2018-11-21T08:25:28.820Z,85.47
2018-11-21T08:26:28.813Z,85.68
2018-11-21T08:27:28.795Z,86.20
2018-11-21T08:28:28.870Z,86.20
2018-11-21T08:29:28.775Z,85.99
2018-11-21T08:30:28.796Z,85.68
2018-11-21T08:31:28.760Z,85.74
2018-11-21T08:32:28.741Z,85.47
2018-11-21T08:33:33.834Z,86.87
2018-11-21T08:34:28.753Z,87.14
2018-11-21T08:35:28.725Z,87.24
2018-11-21T08:36:28.698Z,87.24
2018-11-21T08:37:28.711Z,87.07
2018-11-21T08:38:28.679Z,86.97
2018-11-21T08:39:28.687Z,87.60
2018-11-21T08:40:28.685Z,87.91
2018-11-21T08:41:28.661Z,87.14
2018-11-21T08:42:28.664Z,86.41
2018-11-21T08:43:28.631Z,86.20
2018-11-21T08:44:28.641Z,85.74
2018-11-21T08:45:28.611Z,86.10
2018-11-21T08:46:28.598Z,86.20
2018-11-21T08:47:28.625Z,86.10
2018-11-21T08:48:28.617Z,86.10
2018-11-21T08:49:28.576Z,85.53
2018-11-21T08:50:28.556Z,85.47
2018-11-21T08:51:28.548Z,85.68
2018-11-21T08:52:28.532Z,86.35
2018-11-21T08:53:31.813Z,87.49
2018-11-21T08:54:28.511Z,87.39
2018-11-21T08:55:28.500Z,86.41
2018-11-21T08:56:28.490Z,86.55
2018-11-21T08:57:28.480Z,86.55
2018-11-21T08:58:28.489Z,86.87
2018-11-21T08:59:28.464Z,87.49
2018-11-21T09:00:28.453Z,86.55
2018-11-21T09:01:28.449Z,86.30
2018-11-21T09:02:28.422Z,86.10
2018-11-21T09:03:28.438Z,86.10
2018-11-21T09:04:28.414Z,85.36
2018-11-21T09:05:28.392Z,85.47
2018-11-21T09:06:28.383Z,85.68
2018-11-21T09:07:28.383Z,85.36
2018-11-21T09:08:28.417Z,85.47
2018-11-21T09:09:28.356Z,85.47
2018-11-21T09:10:57.269Z,86.24
2018-11-21T09:11:57.252Z,86.24
2018-11-21T09:12:57.243Z,87.60
2018-11-21T09:13:57.259Z,86.97
2018-11-21T09:14:57.212Z,86.97
2018-11-21T09:15:57.200Z,87.39
2018-11-21T09:16:57.197Z,86.24
2018-11-21T09:17:57.178Z,85.47
2018-11-21T09:18:57.195Z,85.68
2018-11-21T09:19:57.158Z,85.78
2018-11-21T09:20:57.166Z,85.72
2018-11-21T09:21:57.175Z,85.99
2018-11-21T09:22:57.141Z,85.68
2018-11-21T09:23:57.146Z,85.58
2018-11-21T09:24:57.128Z,85.58
2018-11-21T09:25:57.105Z,85.36
2018-11-21T09:26:57.084Z,85.68
2018-11-21T09:27:57.077Z,85.12
2018-11-21T09:28:57.071Z,85.02
2018-11-21T09:29:57.077Z,84.08
2018-11-21T09:30:57.052Z,84.70
2018-11-21T09:31:57.033Z,85.26
2018-11-21T09:32:57.041Z,85.16
2018-11-21T09:33:57.006Z,85.68
2018-11-21T09:34:57.081Z,85.78
2018-11-21T09:35:56.992Z,85.58
2018-11-21T09:36:56.973Z,84.81
2018-11-21T09:37:56.964Z,85.22
2018-11-21T09:38:56.958Z,84.64
2018-11-21T09:39:56.951Z,84.70
2018-11-21T09:40:56.957Z,85.68
2018-11-21T09:41:56.935Z,85.36
2018-11-21T09:42:56.919Z,85.58
2018-11-21T09:43:56.904Z,85.36
2018-11-21T09:44:56.901Z,85.68
2018-11-21T09:45:56.904Z,85.61
2018-11-21T09:46:56.875Z,85.82
2018-11-21T09:47:56.862Z,85.51
2018-11-21T09:48:56.859Z,85.36
2018-11-21T09:49:56.888Z,85.36
2018-11-21T09:50:56.830Z,85.41
2018-11-21T09:51:56.824Z,85.61
2018-11-21T09:52:56.813Z,85.61
2018-11-21T09:53:56.794Z,85.61
2018-11-21T09:54:56.789Z,85.61
2018-11-21T09:55:56.799Z,85.61
2018-11-21T09:56:56.764Z,85.36
2018-11-21T09:57:56.771Z,85.36
2018-11-21T09:58:56.774Z,85.36
2018-11-21T09:59:57.964Z,85.36
2018-11-21T10:00:56.757Z,85.05
2018-11-21T10:01:56.713Z,85.02
2018-11-21T10:02:56.701Z,85.02
2018-11-21T10:04:00.948Z,85.16
2018-11-21T10:04:56.677Z,85.58
2018-11-21T10:05:56.695Z,85.05
2018-11-21T10:06:56.661Z,85.47
2018-11-21T10:07:56.656Z,85.72
2018-11-21T10:08:56.652Z,85.41
2018-11-21T10:09:56.655Z,85.61
2018-11-21T10:10:56.635Z,85.68
2018-11-21T10:11:56.606Z,85.47
2018-11-21T10:12:56.608Z,85.58
2018-11-21T10:13:56.628Z,85.68
2018-11-21T10:14:56.577Z,85.47
2018-11-21T10:16:00.903Z,85.47
2018-11-21T10:16:56.551Z,85.33
2018-11-21T10:17:56.545Z,84.91
2018-11-21T10:18:56.533Z,85.36
2018-11-21T10:19:56.517Z,85.36
2018-11-21T10:20:56.506Z,85.12
2018-11-21T10:21:56.524Z,85.16
2018-11-21T10:22:56.492Z,85.22
2018-11-21T10:23:56.475Z,85.26
2018-11-21T10:24:56.502Z,84.22
2018-11-21T10:25:56.461Z,85.05
2018-11-21T10:26:56.469Z,85.05
2018-11-21T10:27:56.435Z,85.12
2018-11-21T10:28:56.422Z,84.81
2018-11-21T10:29:56.419Z,85.02
2018-11-21T10:30:56.424Z,85.33
2018-11-21T10:31:56.415Z,85.47
2018-11-21T10:32:56.379Z,84.18
2018-11-21T10:33:56.374Z,84.22
2018-11-21T10:34:56.364Z,84.95
2018-11-21T10:35:56.347Z,85.47
2018-11-21T10:36:56.368Z,85.43
2018-11-21T10:37:56.336Z,85.58
2018-11-21T10:38:56.314Z,85.47
2018-11-21T10:39:56.307Z,85.74
2018-11-21T10:40:56.314Z,85.74
2018-11-21T10:41:56.308Z,84.91
2018-11-21T10:42:56.277Z,84.91
2018-11-21T10:43:56.262Z,85.05
2018-11-21T10:44:56.259Z,85.36
2018-11-21T10:45:56.245Z,85.68
2018-11-21T10:46:56.269Z,85.78
2018-11-21T10:47:56.232Z,85.99
2018-11-21T10:48:56.215Z,86.10
2018-11-21T10:49:56.207Z,86.20
2018-11-21T10:50:56.189Z,85.99
2018-11-21T10:51:56.202Z,85.58
2018-11-21T10:52:56.170Z,86.20
2018-11-21T10:53:56.155Z,86.51
2018-11-21T10:54:56.146Z,86.51
2018-11-21T10:55:56.149Z,86.51
2018-11-21T10:56:56.151Z,87.24
2018-11-21T10:57:56.117Z,86.30
2018-11-21T10:58:56.105Z,86.20
2018-11-21T10:59:56.097Z,86.20
2018-11-21T11:00:56.093Z,87.04
2018-11-21T11:01:56.152Z,87.24
2018-11-21T11:02:56.086Z,87.66
2018-11-21T11:03:56.053Z,87.35
2018-11-21T11:04:56.041Z,87.30
2018-11-21T11:05:56.026Z,87.04
2018-11-21T11:06:56.044Z,87.04
2018-11-21T11:07:56.007Z,87.55
2018-11-21T11:08:56.035Z,86.41
2018-11-21T11:09:56.000Z,87.28
2018-11-21T11:10:55.978Z,87.28
2018-11-21T11:11:59.686Z,87.24
2018-11-21T11:12:55.959Z,87.14
2018-11-21T11:13:55.941Z,87.04
2018-11-21T11:14:55.944Z,87.35
2018-11-21T11:15:55.921Z,87.14
2018-11-21T11:16:55.962Z,87.04
2018-11-21T11:17:59.504Z,87.45
2018-11-21T11:18:55.891Z,87.49
2018-11-21T11:19:55.906Z,87.35
2018-11-21T11:20:55.872Z,87.66
2018-11-21T11:21:55.859Z,87.35
2018-11-21T11:22:55.889Z,87.24
2018-11-21T11:23:55.851Z,87.45
2018-11-21T11:24:55.835Z,87.35
2018-11-21T11:25:55.818Z,87.66
2018-11-21T11:26:55.806Z,87.10
2018-11-21T11:27:55.838Z,86.47
2018-11-21T11:28:55.806Z,86.37
2018-11-21T11:29:55.774Z,86.06
2018-11-21T11:30:55.767Z,86.06
2018-11-21T11:31:55.796Z,85.85
2018-11-21T11:32:55.745Z,85.64
2018-11-21T11:33:55.792Z,85.53
2018-11-21T11:34:55.724Z,85.74
2018-11-21T11:35:55.715Z,85.53
2018-11-21T11:36:55.704Z,85.53
2018-11-21T11:37:55.690Z,85.43
2018-11-21T11:38:55.704Z,85.74
2018-11-21T11:39:55.692Z,85.74
2018-11-21T11:40:55.678Z,85.43
2018-11-21T11:41:55.651Z,85.43
2018-11-21T11:42:55.637Z,85.53
2018-11-21T11:43:55.661Z,85.96
2018-11-21T11:44:55.616Z,85.74
2018-11-21T11:45:55.605Z,85.12
2018-11-21T11:46:55.619Z,85.43
2018-11-21T11:47:55.584Z,85.53
2018-11-21T11:48:55.574Z,85.53
2018-11-21T11:49:55.593Z,85.53
2018-11-21T11:50:55.554Z,85.02
2018-11-21T11:51:55.549Z,85.33
2018-11-21T11:52:55.541Z,85.33
2018-11-21T11:53:55.526Z,85.64
2018-11-21T11:54:55.526Z,85.47
2018-11-21T11:55:55.504Z,85.64
2018-11-21T11:56:55.491Z,85.02
2018-11-21T11:57:55.477Z,85.02
2018-11-21T11:58:55.469Z,85.12
2018-11-21T11:59:55.476Z,85.47
2018-11-21T12:00:55.454Z,85.47
2018-11-21T12:01:55.446Z,85.53
2018-11-21T12:02:55.426Z,84.81
2018-11-21T12:03:57.876Z,85.05
2018-11-21T12:04:55.489Z,85.02
2018-11-21T12:05:55.392Z,85.05
2018-11-21T12:06:55.388Z,85.68
2018-11-21T12:07:55.373Z,85.02
2018-11-21T12:08:55.362Z,84.91
2018-11-21T12:09:55.355Z,85.12
2018-11-21T12:10:55.362Z,85.02
2018-11-21T12:11:55.329Z,85.89
2018-11-21T12:12:55.316Z,85.05
2018-11-21T12:13:55.313Z,85.02
2018-11-21T12:14:55.294Z,84.60
2018-11-21T12:15:55.338Z,84.18
2018-11-21T12:16:55.277Z,84.08
2018-11-21T12:17:55.260Z,84.60
2018-11-21T12:18:55.316Z,83.97
2018-11-21T12:19:55.242Z,84.08
2018-11-21T12:20:55.229Z,83.56
2018-11-21T12:21:55.220Z,84.28
2018-11-21T12:22:55.214Z,83.20
2018-11-21T12:23:55.246Z,82.82
2018-11-21T12:24:55.188Z,82.93
2018-11-21T12:25:55.185Z,83.14
2018-11-21T12:26:55.167Z,83.76
2018-11-21T12:27:55.154Z,83.66
2018-11-21T12:28:55.145Z,83.35
2018-11-21T12:29:55.164Z,83.87
2018-11-21T12:30:55.133Z,84.18
2018-11-21T12:31:55.115Z,83.97
2018-11-21T12:32:55.110Z,83.56
2018-11-21T12:33:55.097Z,83.59
2018-11-21T12:34:55.110Z,84.33
2018-11-21T12:35:55.106Z,84.28
2018-11-21T12:36:55.061Z,84.22
2018-11-21T12:37:55.049Z,84.53
2018-11-21T12:38:55.060Z,84.18
2018-11-21T12:39:55.048Z,83.70
2018-11-21T12:40:55.040Z,84.18
2018-11-21T12:42:02.122Z,84.22
2018-11-21T12:42:54.993Z,83.76
2018-11-21T12:43:54.981Z,84.18
2018-11-21T12:44:54.975Z,83.87
2018-11-21T12:45:54.988Z,83.56
2018-11-21T12:46:54.953Z,83.66
2018-11-21T12:47:54.941Z,83.66
2018-11-21T12:48:54.932Z,83.66
2018-11-21T12:49:54.919Z,83.66
2018-11-21T12:50:54.953Z,84.08
2018-11-21T12:51:54.898Z,84.18
2018-11-21T12:52:54.893Z,83.97